X  Schlie├čen METAR Luftfahrt Wetterdaten     EDDH Hamburg Helmut Schmidt Airport
Temperatur
16°C Temperatur
7°C Taupunkt
55% Feuchtigkeit



Wind
16 KM/S
10 MPS
4 M/S
9 KTS



260°
W
Aktuelle Wetterlage

Klar Klar
Luftdruck 1026.92 (hPa) - 30.32 (inHg)
Sichtweite 6.2 (Meile) - 10 (Km)
Flughafen
Flughafen Code EDDH

Position : Hamburg Helmut Schmidt Airport
Entfernung: 11 (Km)

Metar:
EDDH 061550Z AUTO 26009KT CAVOK 16/07 Q1027 NOSIG

Zeit: 06-10-2022 17:50 CEST